Terminal Aerodrome Forecast
Issued by NWS

Home | Current Version | Previous Version | Graphics & Text | Print | Product List | Glossary On
Versions: 1 2 3 4 5 6 7 8 9 10 11 12 13 14 15
418
FTUS43 KTOP 171725
TAFMHK
TAF
KMHK 171725Z 1718/1818 21015G25KT P6SM FEW250
     FM172300 23006KT P6SM SCT250
     FM180200 33004KT P6SM BKN200
     FM180700 36016G26KT P6SM BKN020
     FM181000 34020G30KT P6SM VCSH OVC015
     FM181400 34020G30KT P6SM BKN060=

USA.gov is the U.S. government's official web portal to all federal, state and local government web resources and services.